sensor_id;sensor_type;location;lat;lon;timestamp;P1;durP1;ratioP1;P2;durP2;ratioP2
24279;SDS011;12395;42.808;23.408;2023-02-02T00:02:03;3.27;;;1.80;;
24279;SDS011;12395;42.808;23.408;2023-02-02T00:04:33;3.40;;;1.50;;
24279;SDS011;12395;42.808;23.408;2023-02-02T00:06:59;2.63;;;1.57;;
24279;SDS011;12395;42.808;23.408;2023-02-02T00:09:27;6.00;;;2.78;;
24279;SDS011;12395;42.808;23.408;2023-02-02T00:11:54;4.38;;;1.98;;
24279;SDS011;12395;42.808;23.408;2023-02-02T00:14:20;4.10;;;1.90;;
24279;SDS011;12395;42.808;23.408;2023-02-02T00:19:22;4.70;;;2.07;;
24279;SDS011;12395;42.808;23.408;2023-02-02T00:21:52;4.17;;;1.50;;
24279;SDS011;12395;42.808;23.408;2023-02-02T00:24:18;4.07;;;1.90;;
24279;SDS011;12395;42.808;23.408;2023-02-02T00:26:45;4.77;;;1.80;;
24279;SDS011;12395;42.808;23.408;2023-02-02T00:29:16;4.70;;;1.90;;
24279;SDS011;12395;42.808;23.408;2023-02-02T00:31:44;4.13;;;2.00;;
24279;SDS011;12395;42.808;23.408;2023-02-02T00:34:13;5.03;;;2.07;;
24279;SDS011;12395;42.808;23.408;2023-02-02T00:36:39;5.77;;;2.23;;
24279;SDS011;12395;42.808;23.408;2023-02-02T00:39:06;3.70;;;2.20;;
24279;SDS011;12395;42.808;23.408;2023-02-02T00:41:32;4.67;;;2.30;;
24279;SDS011;12395;42.808;23.408;2023-02-02T00:43:58;4.13;;;2.33;;
24279;SDS011;12395;42.808;23.408;2023-02-02T00:46:42;4.50;;;2.40;;
24279;SDS011;12395;42.808;23.408;2023-02-02T00:49:07;9.33;;;3.20;;
24279;SDS011;12395;42.808;23.408;2023-02-02T00:51:34;4.80;;;2.70;;
24279;SDS011;12395;42.808;23.408;2023-02-02T00:54:00;5.90;;;2.53;;
24279;SDS011;12395;42.808;23.408;2023-02-02T00:56:26;5.23;;;2.60;;
24279;SDS011;12395;42.808;23.408;2023-02-02T00:58:51;5.00;;;2.50;;
24279;SDS011;12395;42.808;23.408;2023-02-02T01:01:17;5.27;;;2.67;;
24279;SDS011;12395;42.808;23.408;2023-02-02T01:03:45;8.43;;;2.30;;
24279;SDS011;12395;42.808;23.408;2023-02-02T01:06:11;4.30;;;2.30;;
24279;SDS011;12395;42.808;23.408;2023-02-02T01:08:37;4.53;;;2.20;;
24279;SDS011;12395;42.808;23.408;2023-02-02T01:11:02;4.03;;;2.10;;
24279;SDS011;12395;42.808;23.408;2023-02-02T01:13:28;5.07;;;1.90;;
24279;SDS011;12395;42.808;23.408;2023-02-02T01:15:54;3.97;;;1.80;;
24279;SDS011;12395;42.808;23.408;2023-02-02T01:18:20;4.70;;;1.83;;
24279;SDS011;12395;42.808;23.408;2023-02-02T01:20:46;4.07;;;1.80;;
24279;SDS011;12395;42.808;23.408;2023-02-02T01:23:11;4.60;;;2.07;;
24279;SDS011;12395;42.808;23.408;2023-02-02T01:25:37;4.33;;;2.20;;
24279;SDS011;12395;42.808;23.408;2023-02-02T01:28:02;8.73;;;3.73;;
24279;SDS011;12395;42.808;23.408;2023-02-02T01:30:28;6.87;;;4.00;;
24279;SDS011;12395;42.808;23.408;2023-02-02T01:32:54;8.27;;;4.40;;
24279;SDS011;12395;42.808;23.408;2023-02-02T01:35:19;8.67;;;4.37;;
24279;SDS011;12395;42.808;23.408;2023-02-02T01:37:44;7.57;;;3.53;;
24279;SDS011;12395;42.808;23.408;2023-02-02T01:40:10;8.90;;;4.10;;
24279;SDS011;12395;42.808;23.408;2023-02-02T01:42:36;7.53;;;3.10;;
24279;SDS011;12395;42.808;23.408;2023-02-02T01:45:13;5.87;;;3.37;;
24279;SDS011;12395;42.808;23.408;2023-02-02T01:47:46;7.77;;;3.50;;
24279;SDS011;12395;42.808;23.408;2023-02-02T01:50:15;6.77;;;2.60;;
24279;SDS011;12395;42.808;23.408;2023-02-02T01:52:44;5.03;;;2.60;;
24279;SDS011;12395;42.808;23.408;2023-02-02T01:55:13;6.37;;;3.07;;
24279;SDS011;12395;42.808;23.408;2023-02-02T01:57:45;6.93;;;3.30;;
24279;SDS011;12395;42.808;23.408;2023-02-02T02:00:24;5.50;;;3.03;;
24279;SDS011;12395;42.808;23.408;2023-02-02T02:02:52;4.35;;;2.42;;
24279;SDS011;12395;42.808;23.408;2023-02-02T02:05:28;4.93;;;2.53;;
24279;SDS011;12395;42.808;23.408;2023-02-02T02:08:04;6.00;;;2.88;;
24279;SDS011;12395;42.808;23.408;2023-02-02T02:10:36;3.88;;;2.38;;
24279;SDS011;12395;42.808;23.408;2023-02-02T02:13:02;3.90;;;2.27;;
24279;SDS011;12395;42.808;23.408;2023-02-02T02:15:28;5.40;;;2.47;;
24279;SDS011;12395;42.808;23.408;2023-02-02T02:18:22;3.45;;;2.08;;
24279;SDS011;12395;42.808;23.408;2023-02-02T02:21:16;5.03;;;2.43;;
24279;SDS011;12395;42.808;23.408;2023-02-02T02:33:29;5.87;;;2.90;;
24279;SDS011;12395;42.808;23.408;2023-02-02T02:36:03;3.90;;;2.20;;
24279;SDS011;12395;42.808;23.408;2023-02-02T02:38:40;3.97;;;2.50;;
24279;SDS011;12395;42.808;23.408;2023-02-02T02:41:17;4.30;;;2.20;;
24279;SDS011;12395;42.808;23.408;2023-02-02T02:43:47;3.73;;;2.07;;
24279;SDS011;12395;42.808;23.408;2023-02-02T02:46:16;4.30;;;2.23;;
24279;SDS011;12395;42.808;23.408;2023-02-02T02:48:43;3.17;;;2.00;;
24279;SDS011;12395;42.808;23.408;2023-02-02T02:59:33;5.20;;;2.40;;
24279;SDS011;12395;42.808;23.408;2023-02-02T03:10:37;5.73;;;2.30;;
24279;SDS011;12395;42.808;23.408;2023-02-02T03:13:08;5.27;;;2.37;;
24279;SDS011;12395;42.808;23.408;2023-02-02T03:15:35;3.47;;;2.00;;
24279;SDS011;12395;42.808;23.408;2023-02-02T03:18:04;5.27;;;2.23;;
24279;SDS011;12395;42.808;23.408;2023-02-02T03:20:29;4.07;;;2.13;;
24279;SDS011;12395;42.808;23.408;2023-02-02T03:22:55;4.33;;;1.93;;
24279;SDS011;12395;42.808;23.408;2023-02-02T03:25:20;3.83;;;2.30;;
24279;SDS011;12395;42.808;23.408;2023-02-02T03:27:45;5.20;;;2.27;;
24279;SDS011;12395;42.808;23.408;2023-02-02T03:30:11;5.33;;;2.60;;
24279;SDS011;12395;42.808;23.408;2023-02-02T03:32:37;3.70;;;2.20;;
24279;SDS011;12395;42.808;23.408;2023-02-02T03:35:04;3.70;;;2.20;;
24279;SDS011;12395;42.808;23.408;2023-02-02T03:37:29;4.50;;;2.30;;
24279;SDS011;12395;42.808;23.408;2023-02-02T03:39:55;6.30;;;2.60;;
24279;SDS011;12395;42.808;23.408;2023-02-02T03:42:20;4.97;;;2.30;;
24279;SDS011;12395;42.808;23.408;2023-02-02T03:44:45;5.63;;;2.80;;
24279;SDS011;12395;42.808;23.408;2023-02-02T03:47:11;5.23;;;2.53;;
24279;SDS011;12395;42.808;23.408;2023-02-02T03:49:36;5.60;;;2.43;;
24279;SDS011;12395;42.808;23.408;2023-02-02T03:52:01;7.03;;;2.43;;
24279;SDS011;12395;42.808;23.408;2023-02-02T03:54:28;5.05;;;2.30;;
24279;SDS011;12395;42.808;23.408;2023-02-02T03:56:54;4.67;;;2.13;;
24279;SDS011;12395;42.808;23.408;2023-02-02T03:59:20;4.53;;;2.30;;
24279;SDS011;12395;42.808;23.408;2023-02-02T04:01:45;4.87;;;2.60;;
24279;SDS011;12395;42.808;23.408;2023-02-02T04:04:10;5.30;;;2.33;;
24279;SDS011;12395;42.808;23.408;2023-02-02T04:06:36;5.07;;;2.37;;
24279;SDS011;12395;42.808;23.408;2023-02-02T04:09:01;5.47;;;2.60;;
24279;SDS011;12395;42.808;23.408;2023-02-02T04:11:27;6.10;;;2.57;;
24279;SDS011;12395;42.808;23.408;2023-02-02T04:13:52;4.70;;;2.50;;
24279;SDS011;12395;42.808;23.408;2023-02-02T04:16:17;5.30;;;2.87;;
24279;SDS011;12395;42.808;23.408;2023-02-02T04:18:43;4.60;;;2.60;;
24279;SDS011;12395;42.808;23.408;2023-02-02T04:21:08;6.47;;;2.70;;
24279;SDS011;12395;42.808;23.408;2023-02-02T04:23:34;6.67;;;2.87;;
24279;SDS011;12395;42.808;23.408;2023-02-02T04:25:59;6.03;;;2.70;;
24279;SDS011;12395;42.808;23.408;2023-02-02T04:28:25;6.27;;;2.70;;
24279;SDS011;12395;42.808;23.408;2023-02-02T04:30:52;5.30;;;2.87;;
24279;SDS011;12395;42.808;23.408;2023-02-02T04:33:19;8.65;;;3.00;;
24279;SDS011;12395;42.808;23.408;2023-02-02T04:35:45;6.07;;;2.90;;
24279;SDS011;12395;42.808;23.408;2023-02-02T04:38:11;5.00;;;2.63;;
24279;SDS011;12395;42.808;23.408;2023-02-02T04:40:37;6.93;;;3.00;;
24279;SDS011;12395;42.808;23.408;2023-02-02T04:43:05;6.73;;;3.10;;
24279;SDS011;12395;42.808;23.408;2023-02-02T04:45:30;5.53;;;2.80;;
24279;SDS011;12395;42.808;23.408;2023-02-02T04:47:56;5.50;;;2.70;;
24279;SDS011;12395;42.808;23.408;2023-02-02T04:50:21;5.17;;;2.87;;
24279;SDS011;12395;42.808;23.408;2023-02-02T04:52:47;5.07;;;3.10;;
24279;SDS011;12395;42.808;23.408;2023-02-02T04:55:12;6.17;;;3.10;;
24279;SDS011;12395;42.808;23.408;2023-02-02T04:57:38;6.40;;;2.87;;
24279;SDS011;12395;42.808;23.408;2023-02-02T05:00:03;5.60;;;3.50;;
24279;SDS011;12395;42.808;23.408;2023-02-02T05:02:29;6.47;;;3.07;;
24279;SDS011;12395;42.808;23.408;2023-02-02T05:04:55;7.87;;;3.30;;
24279;SDS011;12395;42.808;23.408;2023-02-02T05:07:20;6.17;;;3.17;;
24279;SDS011;12395;42.808;23.408;2023-02-02T05:09:46;5.23;;;2.90;;
24279;SDS011;12395;42.808;23.408;2023-02-02T05:12:11;6.47;;;3.00;;
24279;SDS011;12395;42.808;23.408;2023-02-02T05:14:36;6.70;;;3.73;;
24279;SDS011;12395;42.808;23.408;2023-02-02T05:17:02;5.53;;;3.00;;
24279;SDS011;12395;42.808;23.408;2023-02-02T05:19:27;7.40;;;3.40;;
24279;SDS011;12395;42.808;23.408;2023-02-02T05:21:53;8.37;;;4.50;;
24279;SDS011;12395;42.808;23.408;2023-02-02T05:24:18;7.77;;;3.80;;
24279;SDS011;12395;42.808;23.408;2023-02-02T05:26:44;9.50;;;3.30;;
24279;SDS011;12395;42.808;23.408;2023-02-02T05:29:10;8.60;;;3.70;;
24279;SDS011;12395;42.808;23.408;2023-02-02T05:31:35;6.10;;;3.30;;
24279;SDS011;12395;42.808;23.408;2023-02-02T05:34:00;7.90;;;3.53;;
24279;SDS011;12395;42.808;23.408;2023-02-02T05:36:26;7.73;;;3.57;;
24279;SDS011;12395;42.808;23.408;2023-02-02T05:38:51;6.40;;;3.47;;
24279;SDS011;12395;42.808;23.408;2023-02-02T05:41:17;6.50;;;3.10;;
24279;SDS011;12395;42.808;23.408;2023-02-02T05:43:42;6.17;;;3.20;;
24279;SDS011;12395;42.808;23.408;2023-02-02T05:46:08;7.43;;;3.50;;
24279;SDS011;12395;42.808;23.408;2023-02-02T05:48:33;7.77;;;3.20;;
24279;SDS011;12395;42.808;23.408;2023-02-02T05:51:02;6.37;;;3.60;;
24279;SDS011;12395;42.808;23.408;2023-02-02T05:53:36;6.10;;;3.60;;
24279;SDS011;12395;42.808;23.408;2023-02-02T05:56:01;8.07;;;3.73;;
24279;SDS011;12395;42.808;23.408;2023-02-02T05:58:27;7.67;;;3.60;;
24279;SDS011;12395;42.808;23.408;2023-02-02T06:00:52;7.20;;;3.67;;
24279;SDS011;12395;42.808;23.408;2023-02-02T06:03:19;8.63;;;3.92;;
24279;SDS011;12395;42.808;23.408;2023-02-02T06:05:45;7.37;;;3.80;;
24279;SDS011;12395;42.808;23.408;2023-02-02T06:08:10;6.73;;;3.70;;
24279;SDS011;12395;42.808;23.408;2023-02-02T06:10:39;6.47;;;3.20;;
24279;SDS011;12395;42.808;23.408;2023-02-02T06:13:05;6.43;;;3.60;;
24279;SDS011;12395;42.808;23.408;2023-02-02T06:15:31;8.00;;;3.47;;
24279;SDS011;12395;42.808;23.408;2023-02-02T06:17:57;8.27;;;3.50;;
24279;SDS011;12395;42.808;23.408;2023-02-02T06:20:22;6.77;;;3.40;;
24279;SDS011;12395;42.808;23.408;2023-02-02T06:22:48;7.07;;;3.60;;
24279;SDS011;12395;42.808;23.408;2023-02-02T06:25:13;7.07;;;3.33;;
24279;SDS011;12395;42.808;23.408;2023-02-02T06:27:39;7.83;;;3.63;;
24279;SDS011;12395;42.808;23.408;2023-02-02T06:30:04;7.13;;;3.50;;
24279;SDS011;12395;42.808;23.408;2023-02-02T06:32:30;7.07;;;3.30;;
24279;SDS011;12395;42.808;23.408;2023-02-02T06:34:55;7.57;;;3.57;;
24279;SDS011;12395;42.808;23.408;2023-02-02T06:37:21;7.70;;;3.40;;
24279;SDS011;12395;42.808;23.408;2023-02-02T06:39:46;8.40;;;3.97;;
24279;SDS011;12395;42.808;23.408;2023-02-02T06:42:12;6.93;;;3.80;;
24279;SDS011;12395;42.808;23.408;2023-02-02T06:44:37;7.70;;;3.57;;
24279;SDS011;12395;42.808;23.408;2023-02-02T06:47:02;6.97;;;3.30;;
24279;SDS011;12395;42.808;23.408;2023-02-02T06:49:28;7.83;;;3.57;;
24279;SDS011;12395;42.808;23.408;2023-02-02T06:51:53;7.43;;;3.37;;
24279;SDS011;12395;42.808;23.408;2023-02-02T06:54:18;6.17;;;3.40;;
24279;SDS011;12395;42.808;23.408;2023-02-02T06:56:44;6.90;;;3.27;;
24279;SDS011;12395;42.808;23.408;2023-02-02T06:59:09;7.90;;;3.93;;
24279;SDS011;12395;42.808;23.408;2023-02-02T07:01:34;6.87;;;3.67;;
24279;SDS011;12395;42.808;23.408;2023-02-02T07:04:00;6.87;;;3.33;;
24279;SDS011;12395;42.808;23.408;2023-02-02T07:06:26;14.67;;;8.03;;
24279;SDS011;12395;42.808;23.408;2023-02-02T07:08:53;10.93;;;5.15;;
24279;SDS011;12395;42.808;23.408;2023-02-02T07:11:18;8.03;;;4.00;;
24279;SDS011;12395;42.808;23.408;2023-02-02T07:13:45;10.03;;;4.40;;
24279;SDS011;12395;42.808;23.408;2023-02-02T07:16:12;7.53;;;3.97;;
24279;SDS011;12395;42.808;23.408;2023-02-02T07:18:39;8.52;;;3.80;;
24279;SDS011;12395;42.808;23.408;2023-02-02T07:21:05;6.17;;;3.50;;
24279;SDS011;12395;42.808;23.408;2023-02-02T07:23:31;7.87;;;3.97;;
24279;SDS011;12395;42.808;23.408;2023-02-02T07:26:04;7.53;;;3.80;;
24279;SDS011;12395;42.808;23.408;2023-02-02T07:28:31;6.80;;;3.67;;
24279;SDS011;12395;42.808;23.408;2023-02-02T07:30:57;9.17;;;4.37;;
24279;SDS011;12395;42.808;23.408;2023-02-02T07:33:23;7.47;;;3.70;;
24279;SDS011;12395;42.808;23.408;2023-02-02T07:35:48;9.23;;;4.43;;
24279;SDS011;12395;42.808;23.408;2023-02-02T07:38:14;9.87;;;5.13;;
24279;SDS011;12395;42.808;23.408;2023-02-02T07:40:39;16.20;;;8.53;;
24279;SDS011;12395;42.808;23.408;2023-02-02T07:43:04;19.00;;;9.90;;
24279;SDS011;12395;42.808;23.408;2023-02-02T07:45:30;9.47;;;4.30;;
24279;SDS011;12395;42.808;23.408;2023-02-02T07:47:59;7.53;;;3.70;;
24279;SDS011;12395;42.808;23.408;2023-02-02T07:50:25;8.03;;;3.40;;
24279;SDS011;12395;42.808;23.408;2023-02-02T07:52:52;9.80;;;3.85;;
24279;SDS011;12395;42.808;23.408;2023-02-02T07:55:17;7.63;;;3.73;;
24279;SDS011;12395;42.808;23.408;2023-02-02T07:57:43;8.67;;;3.97;;
24279;SDS011;12395;42.808;23.408;2023-02-02T08:00:09;10.07;;;4.33;;
24279;SDS011;12395;42.808;23.408;2023-02-02T08:02:35;7.72;;;4.00;;
24279;SDS011;12395;42.808;23.408;2023-02-02T08:05:00;7.80;;;4.03;;
24279;SDS011;12395;42.808;23.408;2023-02-02T08:07:26;7.28;;;3.45;;
24279;SDS011;12395;42.808;23.408;2023-02-02T08:09:51;8.30;;;4.05;;
24279;SDS011;12395;42.808;23.408;2023-02-02T08:12:17;10.70;;;5.47;;
24279;SDS011;12395;42.808;23.408;2023-02-02T08:14:45;8.57;;;3.20;;
24279;SDS011;12395;42.808;23.408;2023-02-02T08:17:10;19.48;;;9.43;;
24279;SDS011;12395;42.808;23.408;2023-02-02T08:19:36;5.75;;;3.13;;
24279;SDS011;12395;42.808;23.408;2023-02-02T08:22:01;4.53;;;2.55;;
24279;SDS011;12395;42.808;23.408;2023-02-02T08:24:26;14.80;;;9.52;;
24279;SDS011;12395;42.808;23.408;2023-02-02T08:26:52;8.43;;;5.37;;
24279;SDS011;12395;42.808;23.408;2023-02-02T08:29:17;5.30;;;3.05;;
24279;SDS011;12395;42.808;23.408;2023-02-02T08:31:43;7.33;;;3.10;;
24279;SDS011;12395;42.808;23.408;2023-02-02T08:34:09;7.13;;;3.55;;
24279;SDS011;12395;42.808;23.408;2023-02-02T08:36:36;7.93;;;4.50;;
24279;SDS011;12395;42.808;23.408;2023-02-02T08:39:06;6.03;;;3.10;;
24279;SDS011;12395;42.808;23.408;2023-02-02T08:41:34;7.93;;;3.28;;
24279;SDS011;12395;42.808;23.408;2023-02-02T08:44:03;7.60;;;3.30;;
24279;SDS011;12395;42.808;23.408;2023-02-02T08:46:30;7.60;;;3.15;;
24279;SDS011;12395;42.808;23.408;2023-02-02T08:48:55;7.53;;;3.20;;
24279;SDS011;12395;42.808;23.408;2023-02-02T08:51:20;6.55;;;2.97;;
24279;SDS011;12395;42.808;23.408;2023-02-02T08:53:46;5.72;;;3.03;;
24279;SDS011;12395;42.808;23.408;2023-02-02T08:56:13;6.97;;;3.10;;
24279;SDS011;12395;42.808;23.408;2023-02-02T08:58:58;7.28;;;3.10;;
24279;SDS011;12395;42.808;23.408;2023-02-02T09:01:25;5.95;;;2.90;;
24279;SDS011;12395;42.808;23.408;2023-02-02T09:03:52;4.82;;;2.88;;
24279;SDS011;12395;42.808;23.408;2023-02-02T09:06:22;7.07;;;2.60;;
24279;SDS011;12395;42.808;23.408;2023-02-02T09:08:52;9.05;;;4.90;;
24279;SDS011;12395;42.808;23.408;2023-02-02T09:11:18;8.85;;;2.88;;
24279;SDS011;12395;42.808;23.408;2023-02-02T09:13:45;11.27;;;4.32;;
24279;SDS011;12395;42.808;23.408;2023-02-02T09:16:13;6.63;;;3.17;;
24279;SDS011;12395;42.808;23.408;2023-02-02T09:21:07;8.68;;;4.45;;
24279;SDS011;12395;42.808;23.408;2023-02-02T09:26:13;10.13;;;3.80;;
24279;SDS011;12395;42.808;23.408;2023-02-02T09:28:42;7.20;;;3.10;;
24279;SDS011;12395;42.808;23.408;2023-02-02T09:31:09;9.82;;;3.20;;
24279;SDS011;12395;42.808;23.408;2023-02-02T09:33:35;8.25;;;3.25;;
24279;SDS011;12395;42.808;23.408;2023-02-02T09:36:19;6.45;;;2.70;;
24279;SDS011;12395;42.808;23.408;2023-02-02T09:38:47;6.75;;;2.97;;
24279;SDS011;12395;42.808;23.408;2023-02-02T09:41:21;7.00;;;3.03;;
24279;SDS011;12395;42.808;23.408;2023-02-02T09:49:56;6.80;;;3.40;;
24279;SDS011;12395;42.808;23.408;2023-02-02T09:52:28;7.32;;;2.92;;
24279;SDS011;12395;42.808;23.408;2023-02-02T09:55:03;6.17;;;3.03;;
24279;SDS011;12395;42.808;23.408;2023-02-02T09:57:38;9.65;;;5.03;;
24279;SDS011;12395;42.808;23.408;2023-02-02T10:00:55;6.28;;;3.00;;
24279;SDS011;12395;42.808;23.408;2023-02-02T10:03:05;8.13;;;3.63;;
24279;SDS011;12395;42.808;23.408;2023-02-02T10:06:01;7.53;;;4.18;;
24279;SDS011;12395;42.808;23.408;2023-02-02T10:08:47;5.88;;;2.75;;
24279;SDS011;12395;42.808;23.408;2023-02-02T10:13:46;7.20;;;3.30;;
24279;SDS011;12395;42.808;23.408;2023-02-02T10:16:15;9.55;;;3.70;;
24279;SDS011;12395;42.808;23.408;2023-02-02T10:18:47;8.82;;;3.60;;
24279;SDS011;12395;42.808;23.408;2023-02-02T10:24:22;7.45;;;3.08;;
24279;SDS011;12395;42.808;23.408;2023-02-02T10:26:54;5.82;;;2.85;;
24279;SDS011;12395;42.808;23.408;2023-02-02T10:40:03;6.15;;;3.00;;
24279;SDS011;12395;42.808;23.408;2023-02-02T10:45:59;6.28;;;3.00;;
24279;SDS011;12395;42.808;23.408;2023-02-02T10:48:28;7.75;;;3.67;;
24279;SDS011;12395;42.808;23.408;2023-02-02T10:51:01;6.35;;;3.10;;
24279;SDS011;12395;42.808;23.408;2023-02-02T10:53:29;6.90;;;3.35;;
24279;SDS011;12395;42.808;23.408;2023-02-02T10:56:09;16.58;;;7.38;;
24279;SDS011;12395;42.808;23.408;2023-02-02T10:58:39;9.15;;;4.70;;
24279;SDS011;12395;42.808;23.408;2023-02-02T11:01:15;18.33;;;8.70;;
24279;SDS011;12395;42.808;23.408;2023-02-02T11:03:41;16.63;;;7.10;;
24279;SDS011;12395;42.808;23.408;2023-02-02T11:06:09;13.90;;;5.00;;
24279;SDS011;12395;42.808;23.408;2023-02-02T11:08:55;8.23;;;3.88;;
24279;SDS011;12395;42.808;23.408;2023-02-02T11:11:23;21.15;;;9.05;;
24279;SDS011;12395;42.808;23.408;2023-02-02T11:13:58;10.05;;;3.72;;
24279;SDS011;12395;42.808;23.408;2023-02-02T11:16:31;11.50;;;5.20;;
24279;SDS011;12395;42.808;23.408;2023-02-02T11:18:57;9.27;;;4.22;;
24279;SDS011;12395;42.808;23.408;2023-02-02T11:21:27;8.85;;;3.70;;
24279;SDS011;12395;42.808;23.408;2023-02-02T11:23:56;12.27;;;5.57;;
24279;SDS011;12395;42.808;23.408;2023-02-02T11:26:23;11.02;;;4.78;;
24279;SDS011;12395;42.808;23.408;2023-02-02T11:28:50;6.00;;;2.72;;
24279;SDS011;12395;42.808;23.408;2023-02-02T11:31:34;6.43;;;3.28;;
24279;SDS011;12395;42.808;23.408;2023-02-02T11:36:58;5.97;;;2.80;;
24279;SDS011;12395;42.808;23.408;2023-02-02T11:39:34;4.82;;;2.47;;
24279;SDS011;12395;42.808;23.408;2023-02-02T11:42:01;4.50;;;2.30;;
24279;SDS011;12395;42.808;23.408;2023-02-02T11:44:31;5.32;;;2.70;;
24279;SDS011;12395;42.808;23.408;2023-02-02T11:46:59;4.20;;;2.40;;
24279;SDS011;12395;42.808;23.408;2023-02-02T11:49:28;17.65;;;7.60;;
24279;SDS011;12395;42.808;23.408;2023-02-02T11:52:01;3.45;;;2.50;;
24279;SDS011;12395;42.808;23.408;2023-02-02T11:54:32;6.40;;;2.60;;
24279;SDS011;12395;42.808;23.408;2023-02-02T11:57:00;7.30;;;4.05;;
24279;SDS011;12395;42.808;23.408;2023-02-02T11:59:34;8.32;;;4.55;;
24279;SDS011;12395;42.808;23.408;2023-02-02T12:04:36;5.22;;;2.70;;
24279;SDS011;12395;42.808;23.408;2023-02-02T12:07:12;12.05;;;5.75;;
24279;SDS011;12395;42.808;23.408;2023-02-02T12:09:43;7.53;;;2.95;;
24279;SDS011;12395;42.808;23.408;2023-02-02T12:19:47;4.60;;;2.47;;
24279;SDS011;12395;42.808;23.408;2023-02-02T12:43:46;4.00;;;2.05;;
24279;SDS011;12395;42.808;23.408;2023-02-02T12:49:31;4.72;;;2.58;;
24279;SDS011;12395;42.808;23.408;2023-02-02T12:54:46;6.13;;;2.63;;
24279;SDS011;12395;42.808;23.408;2023-02-02T12:57:42;5.53;;;2.70;;
24279;SDS011;12395;42.808;23.408;2023-02-02T13:14:10;5.35;;;2.67;;
24279;SDS011;12395;42.808;23.408;2023-02-02T13:16:42;6.57;;;4.05;;
24279;SDS011;12395;42.808;23.408;2023-02-02T13:19:58;8.18;;;3.72;;
24279;SDS011;12395;42.808;23.408;2023-02-02T13:22:35;9.25;;;4.45;;
24279;SDS011;12395;42.808;23.408;2023-02-02T13:25:06;6.78;;;3.05;;
24279;SDS011;12395;42.808;23.408;2023-02-02T13:27:40;4.00;;;2.08;;
24279;SDS011;12395;42.808;23.408;2023-02-02T13:30:14;3.20;;;1.70;;
24279;SDS011;12395;42.808;23.408;2023-02-02T13:35:38;12.32;;;5.72;;
24279;SDS011;12395;42.808;23.408;2023-02-02T13:38:22;5.32;;;2.85;;
24279;SDS011;12395;42.808;23.408;2023-02-02T13:41:04;4.35;;;1.92;;
24279;SDS011;12395;42.808;23.408;2023-02-02T14:01:53;5.28;;;2.47;;
24279;SDS011;12395;42.808;23.408;2023-02-02T14:04:23;7.07;;;3.50;;
24279;SDS011;12395;42.808;23.408;2023-02-02T14:07:02;4.90;;;2.45;;
24279;SDS011;12395;42.808;23.408;2023-02-02T14:09:31;7.32;;;3.67;;
24279;SDS011;12395;42.808;23.408;2023-02-02T14:12:00;7.82;;;3.55;;
24279;SDS011;12395;42.808;23.408;2023-02-02T14:14:30;4.75;;;2.50;;
24279;SDS011;12395;42.808;23.408;2023-02-02T14:17:02;8.18;;;3.70;;
24279;SDS011;12395;42.808;23.408;2023-02-02T14:19:50;5.57;;;3.10;;
24279;SDS011;12395;42.808;23.408;2023-02-02T14:22:37;6.47;;;3.58;;
24279;SDS011;12395;42.808;23.408;2023-02-02T14:28:12;4.93;;;2.38;;
24279;SDS011;12395;42.808;23.408;2023-02-02T14:31:26;6.80;;;2.60;;
24279;SDS011;12395;42.808;23.408;2023-02-02T14:45:43;5.80;;;2.92;;
24279;SDS011;12395;42.808;23.408;2023-02-02T14:53:20;4.87;;;2.73;;
24279;SDS011;12395;42.808;23.408;2023-02-02T14:58:27;5.10;;;2.55;;
24279;SDS011;12395;42.808;23.408;2023-02-02T15:01:10;3.15;;;2.10;;
24279;SDS011;12395;42.808;23.408;2023-02-02T15:22:30;2.50;;;1.53;;
24279;SDS011;12395;42.808;23.408;2023-02-02T15:24:57;10.45;;;5.57;;
24279;SDS011;12395;42.808;23.408;2023-02-02T15:27:27;12.50;;;6.13;;
24279;SDS011;12395;42.808;23.408;2023-02-02T15:29:55;2.92;;;1.58;;
24279;SDS011;12395;42.808;23.408;2023-02-02T15:32:26;3.27;;;2.00;;
24279;SDS011;12395;42.808;23.408;2023-02-02T15:34:57;3.75;;;2.20;;
24279;SDS011;12395;42.808;23.408;2023-02-02T15:37:29;5.97;;;3.07;;
24279;SDS011;12395;42.808;23.408;2023-02-02T15:40:04;4.30;;;2.30;;
24279;SDS011;12395;42.808;23.408;2023-02-02T15:42:41;7.70;;;3.90;;
24279;SDS011;12395;42.808;23.408;2023-02-02T15:47:52;6.43;;;3.47;;
24279;SDS011;12395;42.808;23.408;2023-02-02T15:50:18;4.57;;;2.47;;
24279;SDS011;12395;42.808;23.408;2023-02-02T15:52:48;4.63;;;2.40;;
24279;SDS011;12395;42.808;23.408;2023-02-02T15:57:44;5.03;;;3.13;;
24279;SDS011;12395;42.808;23.408;2023-02-02T16:00:23;5.17;;;2.70;;
24279;SDS011;12395;42.808;23.408;2023-02-02T16:03:05;4.93;;;2.70;;
24279;SDS011;12395;42.808;23.408;2023-02-02T16:05:39;4.07;;;2.40;;
24279;SDS011;12395;42.808;23.408;2023-02-02T16:08:14;4.73;;;2.80;;
24279;SDS011;12395;42.808;23.408;2023-02-02T16:10:47;29.73;;;7.05;;
24279;SDS011;12395;42.808;23.408;2023-02-02T16:13:26;6.47;;;2.70;;
24279;SDS011;12395;42.808;23.408;2023-02-02T16:15:53;3.50;;;1.93;;
24279;SDS011;12395;42.808;23.408;2023-02-02T16:18:23;4.77;;;2.30;;
24279;SDS011;12395;42.808;23.408;2023-02-02T16:20:48;7.07;;;2.90;;
24279;SDS011;12395;42.808;23.408;2023-02-02T16:23:18;5.05;;;2.50;;
24279;SDS011;12395;42.808;23.408;2023-02-02T16:26:05;7.23;;;3.40;;
24279;SDS011;12395;42.808;23.408;2023-02-02T16:28:31;6.87;;;3.77;;
24279;SDS011;12395;42.808;23.408;2023-02-02T16:30:58;6.50;;;3.10;;
24279;SDS011;12395;42.808;23.408;2023-02-02T16:33:41;5.45;;;2.92;;
24279;SDS011;12395;42.808;23.408;2023-02-02T16:36:18;9.60;;;4.20;;
24279;SDS011;12395;42.808;23.408;2023-02-02T16:38:46;8.98;;;4.45;;
24279;SDS011;12395;42.808;23.408;2023-02-02T16:41:12;7.20;;;4.50;;
24279;SDS011;12395;42.808;23.408;2023-02-02T16:43:49;9.77;;;5.60;;
24279;SDS011;12395;42.808;23.408;2023-02-02T16:46:15;10.63;;;6.50;;
24279;SDS011;12395;42.808;23.408;2023-02-02T16:49:06;11.23;;;7.70;;
24279;SDS011;12395;42.808;23.408;2023-02-02T16:51:41;7.63;;;4.40;;
24279;SDS011;12395;42.808;23.408;2023-02-02T16:56:33;8.57;;;4.00;;
24279;SDS011;12395;42.808;23.408;2023-02-02T16:59:03;9.73;;;5.90;;
24279;SDS011;12395;42.808;23.408;2023-02-02T17:01:35;7.97;;;4.80;;
24279;SDS011;12395;42.808;23.408;2023-02-02T17:04:04;10.03;;;4.80;;
24279;SDS011;12395;42.808;23.408;2023-02-02T17:06:32;16.03;;;7.80;;
24279;SDS011;12395;42.808;23.408;2023-02-02T17:09:16;25.55;;;14.40;;
24279;SDS011;12395;42.808;23.408;2023-02-02T17:14:27;10.80;;;6.80;;
24279;SDS011;12395;42.808;23.408;2023-02-02T17:16:55;11.00;;;5.80;;
24279;SDS011;12395;42.808;23.408;2023-02-02T17:19:20;11.07;;;5.40;;
24279;SDS011;12395;42.808;23.408;2023-02-02T17:21:46;9.83;;;4.57;;
24279;SDS011;12395;42.808;23.408;2023-02-02T17:24:13;14.90;;;7.20;;
24279;SDS011;12395;42.808;23.408;2023-02-02T17:26:40;12.33;;;6.50;;
24279;SDS011;12395;42.808;23.408;2023-02-02T17:29:06;14.63;;;8.07;;
24279;SDS011;12395;42.808;23.408;2023-02-02T17:31:36;14.27;;;8.03;;
24279;SDS011;12395;42.808;23.408;2023-02-02T17:34:02;17.67;;;10.53;;
24279;SDS011;12395;42.808;23.408;2023-02-02T17:36:28;13.20;;;7.80;;
24279;SDS011;12395;42.808;23.408;2023-02-02T17:38:53;21.13;;;12.03;;
24279;SDS011;12395;42.808;23.408;2023-02-02T17:41:20;22.57;;;13.37;;
24279;SDS011;12395;42.808;23.408;2023-02-02T17:43:45;20.30;;;11.53;;
24279;SDS011;12395;42.808;23.408;2023-02-02T17:46:11;11.00;;;5.70;;
24279;SDS011;12395;42.808;23.408;2023-02-02T17:48:37;12.97;;;6.67;;
24279;SDS011;12395;42.808;23.408;2023-02-02T17:51:02;12.67;;;6.60;;
24279;SDS011;12395;42.808;23.408;2023-02-02T17:53:31;13.83;;;8.03;;